Time;durP1;ratioP1;P1;durP2;ratioP2;P2;SDS_P1;SDS_P2;PMS_P1;PMS_P2;Temp;Humidity;BMP_temperature;BMP_pressure;BME280_temperature;BME280_humidity;BME280_pressure;Samples;Min_cycle;Max_cycle;Signal;HPM_P1;HPM_P2
2022/10/09 00:01:05;;;;;;;8.47;5.80;;;;;;;11.61;73.90;97362.69;5047263;28;20220;-78
2022/10/09 00:03:33;;;;;;;6.77;5.47;;;;;;;11.76;74.41;97351.69;5047077;28;20187;-80
2022/10/09 00:06:00;;;;;;;7.50;6.10;;;;;;;11.73;73.77;97357.00;5047229;28;20609;-80
2022/10/09 00:08:28;;;;;;;8.40;5.57;;;;;;;11.92;73.29;97347.47;5047194;28;20233;-80
2022/10/09 00:10:55;;;;;;;6.60;5.50;;;;;;;11.98;73.15;97352.38;5046961;28;20209;-77
2022/10/09 00:13:22;;;;;;;5.90;5.03;;;;;;;11.96;72.83;97344.66;5046133;28;20182;-78
2022/10/09 00:15:49;;;;;;;7.13;5.17;;;;;;;12.04;nan;97344.28;5046564;28;20190;-76
2022/10/09 00:18:17;;;;;;;5.73;5.07;;;;;;;12.14;71.72;97345.53;5047085;28;20245;-77
2022/10/09 00:20:45;;;;;;;10.33;5.60;;;;;;;12.02;72.34;97348.72;5045665;28;20220;-79
2022/10/09 00:23:15;;;;;;;7.33;5.10;;;;;;;12.14;72.62;97345.53;5046733;28;20194;-79
2022/10/09 00:25:54;;;;;;;9.93;4.90;;;;;;;12.20;72.04;97338.31;5047437;28;20697;-78
2022/10/09 00:28:22;;;;;;;6.67;5.20;;;;;;;12.47;71.00;97345.72;5046948;28;20188;-78
2022/10/09 00:30:49;;;;;;;7.63;5.37;;;;;;;12.58;70.17;97341.69;5046258;28;20200;-76
2022/10/09 00:33:17;;;;;;;8.07;5.20;;;;;;;12.41;70.68;97346.84;5046392;28;20279;-76
2022/10/09 00:35:45;;;;;;;6.53;5.20;;;;;;;12.23;70.84;97342.53;5046746;28;20219;-78
2022/10/09 00:38:12;;;;;;;9.10;5.40;;;;;;;12.16;71.12;97341.97;5028684;28;20242;-79
2022/10/09 00:40:40;;;;;;;6.13;5.03;;;;;;;12.33;70.99;97332.53;5046700;28;20697;-77
2022/10/09 00:43:16;;;;;;;6.03;4.43;;;;;;;12.49;70.36;97347.31;5048041;28;20771;-80
2022/10/09 00:45:49;;;;;;;13.60;5.63;;;;;;;12.40;69.88;97319.19;5050740;28;20275;-78
2022/10/09 00:48:17;;;;;;;6.27;5.43;;;;;;;12.34;70.52;97329.03;5052474;28;20196;-79
2022/10/09 00:50:54;;;;;;;8.17;5.57;;;;;;;12.21;70.23;97327.03;5050746;28;20194;-79
2022/10/09 00:53:24;;;;;;;8.10;5.80;;;;;;;12.32;70.99;97336.91;5050825;28;20193;-77
2022/10/09 00:55:51;;;;;;;7.07;5.43;;;;;;;12.17;70.55;97342.81;5050484;28;20198;-76
2022/10/09 00:58:18;;;;;;;9.30;6.00;;;;;;;12.18;70.93;97340.13;5050250;28;20200;-78
2022/10/09 01:00:46;;;;;;;7.50;5.93;;;;;;;11.81;71.38;97328.97;5050547;28;20209;-78
2022/10/09 01:03:13;;;;;;;7.07;6.07;;;;;;;11.62;72.59;97339.31;5049961;28;20666;-79
2022/10/09 01:05:59;;;;;;;8.23;6.80;;;;;;;11.39;73.66;97345.53;5050628;28;20586;-79
2022/10/09 01:08:44;;;;;;;10.43;6.80;;;;;;;11.41;74.14;97343.69;5049786;28;20318;-79
2022/10/09 01:11:32;;;;;;;9.83;7.63;;;;;;;11.32;73.83;97338.91;5048698;28;20202;-78
2022/10/09 01:14:06;;;;;;;8.67;6.97;;;;;;;11.45;73.40;97344.41;5050504;28;20280;-78
2022/10/09 01:16:42;;;;;;;7.70;6.30;;;;;;;11.22;74.36;97332.44;5049636;28;20185;-78
2022/10/09 01:19:26;;;;;;;9.90;6.70;;;;;;;11.23;74.84;97346.25;5050102;28;20219;-79
2022/10/09 01:22:35;;;;;;;11.10;6.97;;;;;;;11.37;73.94;97339.53;5050000;28;20972;-78
2022/10/09 01:25:08;;;;;;;8.33;6.23;;;;;;;11.53;73.50;97325.91;5050146;28;20195;-78
2022/10/09 01:27:36;;;;;;;9.00;6.33;;;;;;;11.71;73.18;97341.50;5049175;28;20223;-78
2022/10/09 01:30:11;;;;;;;10.03;6.57;;;;;;;11.56;73.07;97342.16;5049035;28;20192;-80
2022/10/09 01:32:42;;;;;;;6.90;6.13;;;;;;;11.48;73.78;97340.84;5049929;28;20605;-78
2022/10/09 01:35:11;;;;;;;8.13;5.80;;;;;;;11.40;73.69;97339.41;5048915;28;20659;-79
2022/10/09 01:37:41;;;;;;;15.30;7.63;;;;;;;11.34;73.81;97336.25;5049586;28;20281;-79
2022/10/09 01:40:11;;;;;;;8.93;6.80;;;;;;;11.30;74.32;97347.66;5050151;28;20223;-81
2022/10/09 01:42:39;;;;;;;9.77;6.97;;;;;;;11.32;74.47;97348.44;5049429;28;20270;-81
2022/10/09 01:45:07;;;;;;;8.70;7.17;;;;;;;11.23;74.60;97343.66;5050415;28;20862;-82
2022/10/09 01:47:34;;;;;;;8.80;6.93;;;;;;;11.13;74.83;97329.38;5049791;28;20193;-83
2022/10/09 01:50:15;;;;;;;7.67;6.30;;;;;;;11.19;74.64;97340.34;5049622;28;20671;-79
2022/10/09 01:52:42;;;;;;;7.90;6.67;;;;;;;11.11;74.99;97334.66;5048632;28;20269;-81
2022/10/09 01:55:17;;;;;;;8.63;6.67;;;;;;;11.22;74.45;97339.38;5048285;28;20196;-82
2022/10/09 01:57:48;;;;;;;10.10;6.47;;;;;;;11.32;74.58;97345.84;5049042;28;20668;-81
2022/10/09 02:00:15;;;;;;;9.03;6.33;;;;;;;11.33;73.79;97342.34;5048030;28;20220;-81
2022/10/09 02:02:44;;;;;;;9.53;6.20;;;;;;;11.00;75.04;97329.09;5049634;28;20189;-79
2022/10/09 02:05:16;;;;;;;12.37;7.00;;;;;;;10.79;76.01;97332.59;5049319;28;20198;-80
2022/10/09 02:07:43;;;;;;;7.63;6.43;;;;;;;10.78;75.91;97343.03;5047827;28;20289;-81
2022/10/09 02:10:11;;;;;;;9.10;7.27;;;;;;;10.80;76.42;97343.81;5049222;28;20229;-79
2022/10/09 02:12:48;;;;;;;9.23;7.20;;;;;;;10.80;75.97;97343.81;5048676;28;20677;-80
2022/10/09 02:15:15;;;;;;;9.67;6.93;;;;;;;10.90;75.64;97343.34;5049442;28;20900;-79
2022/10/09 02:17:46;;;;;;;8.80;6.90;;;;;;;10.88;75.82;97354.69;5048581;28;20246;-79
2022/10/09 02:20:21;;;;;;;7.17;6.47;;;;;;;10.90;75.64;97343.34;5064378;28;20319;-79
2022/10/09 02:22:48;;;;;;;9.53;7.20;;;;;;;10.85;74.95;97340.09;5055169;28;20196;-78
2022/10/09 02:25:17;;;;;;;10.60;7.10;;;;;;;10.83;75.26;97331.56;5048887;28;20292;-79
2022/10/09 02:27:45;;;;;;;16.23;7.40;;;;;;;10.81;75.85;97338.56;5047616;28;20292;-80
2022/10/09 02:30:14;;;;;;;7.87;6.63;;;;;;;10.68;76.17;97342.56;5053559;28;20197;-79
2022/10/09 02:32:41;;;;;;;9.07;7.07;;;;;;;10.64;76.03;97331.47;5059487;28;20229;-81
2022/10/09 02:35:08;;;;;;;8.37;6.77;;;;;;;10.53;76.34;97348.38;5047009;28;20222;-80
2022/10/09 02:37:35;;;;;;;9.80;5.63;;;;;;;10.44;76.20;97352.19;5048781;28;20200;-79
2022/10/09 02:40:02;;;;;;;9.67;6.17;;;;;;;10.29;77.25;97350.19;5048427;28;20700;-80
2022/10/09 02:42:36;;;;;;;8.37;5.87;;;;;;;10.29;77.19;97338.97;5048278;28;20200;-80
2022/10/09 02:45:04;;;;;;;8.13;5.90;;;;;;;10.43;76.47;97355.66;5048614;28;20574;-80
2022/10/09 02:47:31;;;;;;;7.97;6.33;;;;;;;10.38;77.16;97359.34;5048078;28;20578;-80
2022/10/09 02:49:58;;;;;;;11.97;7.53;;;;;;;10.28;77.86;97360.59;5048677;28;20309;-78
2022/10/09 02:52:24;;;;;;;10.53;7.40;;;;;;;10.17;78.35;97347.25;5048017;28;20194;-78
2022/10/09 02:54:51;;;;;;;10.87;8.37;;;;;;;10.15;78.62;97351.63;5048143;28;20192;-78
2022/10/09 02:57:18;;;;;;;11.67;8.63;;;;;;;10.18;78.78;97351.53;5047747;28;20217;-79
2022/10/09 02:59:45;;;;;;;15.40;7.67;;;;;;;10.23;78.60;97352.16;5047843;28;20340;-78
2022/10/09 03:02:12;;;;;;;10.13;7.10;;;;;;;10.31;78.68;97338.03;5048056;28;20693;-81
2022/10/09 03:04:39;;;;;;;11.50;7.70;;;;;;;10.37;78.74;97347.28;5047937;28;20316;-77
2022/10/09 03:07:06;;;;;;;12.90;8.10;;;;;;;10.41;78.22;97348.84;5048190;28;20273;-80
2022/10/09 03:09:33;;;;;;;9.47;7.30;;;;;;;10.45;78.84;97342.63;5047793;28;20232;-78
2022/10/09 03:12:00;;;;;;;9.77;6.70;;;;;;;10.44;78.71;97343.56;5048067;28;20182;-79
2022/10/09 03:14:27;;;;;;;10.10;7.10;;;;;;;10.32;78.61;97323.34;5047705;28;20190;-77
2022/10/09 03:16:53;;;;;;;9.10;6.73;;;;;;;10.55;78.63;97346.56;5047600;28;20215;-76
2022/10/09 03:19:20;;;;;;;8.93;6.77;;;;;;;10.57;78.18;97347.34;5048202;28;20197;-78
2022/10/09 03:21:47;;;;;;;8.77;6.93;;;;;;;10.54;78.19;97350.03;5047944;28;20191;-78
2022/10/09 03:24:14;;;;;;;8.67;6.77;;;;;;;10.46;78.53;97346.94;5047763;28;20190;-79
2022/10/09 03:26:41;;;;;;;8.23;6.67;;;;;;;10.41;77.99;97343.66;5047084;28;20757;-78
2022/10/09 03:29:08;;;;;;;7.50;6.27;;;;;;;10.53;77.55;97349.19;5047768;28;20683;-77
2022/10/09 03:31:35;;;;;;;10.50;5.80;;;;;;;10.50;77.38;97349.34;5047102;28;20599;-80
2022/10/09 03:34:19;;;;;;;6.73;5.50;;;;;;;10.47;77.43;97358.94;5047169;28;20669;-78
2022/10/09 03:36:46;;;;;;;8.93;5.70;;;;;;;10.39;77.69;97358.41;5047381;28;20182;-77
2022/10/09 03:39:13;;;;;;;7.07;5.70;;;;;;;10.45;77.50;97361.59;5045667;28;20194;-75
2022/10/09 03:41:40;;;;;;;7.87;6.20;;;;;;;10.35;77.26;97359.44;5047521;28;20307;-77
2022/10/09 03:44:07;;;;;;;7.63;5.50;;;;;;;10.21;78.01;97361.75;5046349;28;20213;-76
2022/10/09 03:46:34;;;;;;;10.23;6.10;;;;;;;10.18;78.12;97361.88;5047179;28;20191;-75
2022/10/09 03:49:01;;;;;;;8.73;6.57;;;;;;;10.33;77.63;97362.09;5046878;28;20193;-78
2022/10/09 03:51:28;;;;;;;8.23;6.37;;;;;;;10.53;76.62;97366.50;5047458;28;20260;-77
2022/10/09 03:53:54;;;;;;;8.50;6.70;;;;;;;10.55;76.00;97362.91;5046816;28;20198;-78
2022/10/09 03:56:21;;;;;;;10.40;6.93;;;;;;;10.54;76.55;97361.25;5046772;28;20348;-77
2022/10/09 03:58:48;;;;;;;9.00;6.37;;;;;;;10.46;76.34;97372.81;5047238;28;20205;-78
2022/10/09 04:01:15;;;;;;;7.63;6.07;;;;;;;10.23;77.02;97365.09;5046886;28;20820;-77
2022/10/09 04:03:42;;;;;;;9.73;7.10;;;;;;;10.03;78.02;97368.44;5047410;28;20228;-77
2022/10/09 04:06:09;;;;;;;10.00;7.70;;;;;;;9.83;78.29;97351.09;5045124;28;20288;-78
2022/10/09 04:08:36;;;;;;;10.63;7.80;;;;;;;9.89;79.65;97370.72;5046740;28;20233;-79
2022/10/09 04:11:06;;;;;;;14.07;8.10;;;;;;;9.90;79.77;97366.38;5047022;28;20284;-79
2022/10/09 04:13:33;;;;;;;10.90;8.00;;;;;;;10.02;79.78;97371.06;5046989;28;20196;-79
2022/10/09 04:15:59;;;;;;;10.07;7.50;;;;;;;10.01;79.34;97365.09;5046996;28;20190;-75
2022/10/09 04:18:26;;;;;;;10.17;7.77;;;;;;;10.10;80.17;97371.66;5046077;28;20566;-79
2022/10/09 04:20:55;;;;;;;9.90;7.23;;;;;;;10.09;79.86;97372.53;5047577;28;20217;-81
2022/10/09 04:23:25;;;;;;;10.00;6.80;;;;;;;10.01;79.40;97349.56;5046962;28;20208;-80
2022/10/09 04:25:53;;;;;;;7.43;5.97;;;;;;;10.11;79.70;97366.44;5045803;28;20595;-80
2022/10/09 04:28:22;;;;;;;10.10;6.80;;;;;;;10.32;79.56;97375.13;5047210;28;20649;-76
2022/10/09 04:30:51;;;;;;;7.07;6.13;;;;;;;10.30;78.94;97371.75;5047186;28;20565;-79
2022/10/09 04:33:18;;;;;;;9.57;6.70;;;;;;;10.48;78.65;97376.19;5047201;28;20198;-80
2022/10/09 04:35:49;;;;;;;8.13;5.63;;;;;;;10.42;78.56;97376.44;5045503;28;20277;-78
2022/10/09 04:38:17;;;;;;;7.83;5.80;;;;;;;10.47;78.27;97384.84;5047994;28;20188;-81
2022/10/09 04:40:44;;;;;;;8.00;5.67;;;;;;;10.54;77.65;97386.28;5046984;28;20214;-80
2022/10/09 04:43:11;;;;;;;8.37;6.07;;;;;;;10.54;77.40;97368.16;5047488;28;20580;-79
2022/10/09 04:45:39;;;;;;;6.07;5.03;;;;;;;10.58;77.13;97386.13;5047223;28;20192;-77
2022/10/09 04:48:06;;;;;;;7.33;6.00;;;;;;;10.41;77.61;97385.09;5046950;28;20194;-78
2022/10/09 04:50:33;;;;;;;8.50;5.83;;;;;;;10.32;78.17;97380.28;5047089;28;20208;-77
2022/10/09 04:53:00;;;;;;;7.40;5.30;;;;;;;10.37;78.04;97383.53;5046723;28;20651;-75
2022/10/09 04:55:27;;;;;;;6.50;5.47;;;;;;;10.38;77.56;97369.69;5047191;28;20214;-80
2022/10/09 04:57:54;;;;;;;5.57;5.00;;;;;;;10.48;77.16;97381.38;5046616;28;20178;-80
2022/10/09 05:00:21;;;;;;;6.23;5.00;;;;;;;10.56;77.29;97392.25;5047030;28;20213;-76
2022/10/09 05:02:48;;;;;;;5.93;5.27;;;;;;;10.79;76.02;97380.97;5046647;28;20190;-80
2022/10/09 05:05:16;;;;;;;7.70;5.57;;;;;;;10.95;75.53;97385.44;5046691;28;20190;-80
2022/10/09 05:07:42;;;;;;;9.53;5.83;;;;;;;11.04;75.03;97379.03;5046707;28;20191;-81
2022/10/09 05:10:09;;;;;;;8.33;6.00;;;;;;;10.77;75.31;97362.91;5046621;28;20223;-81
2022/10/09 05:12:36;;;;;;;8.57;5.67;;;;;;;10.92;75.66;97380.38;5047035;28;20300;-79
2022/10/09 05:15:04;;;;;;;7.83;5.47;;;;;;;10.97;75.77;97380.19;5045638;28;20277;-76
2022/10/09 05:17:30;;;;;;;6.97;5.50;;;;;;;10.89;75.53;97357.22;5049218;28;20195;-79
2022/10/09 05:19:57;;;;;;;7.23;5.33;;;;;;;10.94;75.87;97399.28;5045214;28;20189;-80
2022/10/09 05:22:25;;;;;;;8.97;5.60;;;;;;;11.01;75.85;97392.13;5046768;28;20189;-78
2022/10/09 05:24:51;;;;;;;7.83;5.30;;;;;;;11.09;75.49;97393.47;5046368;28;20657;-77
2022/10/09 05:27:18;;;;;;;6.50;5.07;;;;;;;11.22;74.70;97399.84;5046238;28;20187;-76
2022/10/09 05:29:45;;;;;;;8.03;5.43;;;;;;;11.40;74.75;97405.97;5048134;28;20332;-76
2022/10/09 05:32:13;;;;;;;9.53;5.43;;;;;;;11.54;74.14;97408.00;5050382;28;20194;-76
2022/10/09 05:34:40;;;;;;;7.13;5.10;;;;;;;11.58;74.45;97412.97;5061667;28;20539;-75
2022/10/09 05:37:07;;;;;;;6.40;4.97;;;;;;;11.64;74.00;97409.28;5051943;28;20186;-75
2022/10/09 05:39:38;;;;;;;6.57;5.00;;;;;;;11.70;73.79;97406.44;5051952;28;20195;-76
2022/10/09 05:42:05;;;;;;;6.80;5.53;;;;;;;11.83;73.19;97413.59;5050992;28;20330;-77
2022/10/09 05:44:32;;;;;;;8.03;5.90;;;;;;;11.85;73.12;97410.97;5050329;28;20615;-75
2022/10/09 05:46:59;;;;;;;6.77;5.67;;;;;;;11.84;73.15;97414.44;5048876;28;20226;-78
2022/10/09 05:49:26;;;;;;;10.73;6.37;;;;;;;11.88;73.17;97419.44;5048990;28;20293;-78
2022/10/09 05:51:54;;;;;;;7.40;6.40;;;;;;;12.01;73.32;97414.53;5051079;28;20190;-76
2022/10/09 05:54:21;;;;;;;9.17;6.60;;;;;;;12.35;72.94;97406.88;5055524;28;20273;-77
2022/10/09 05:56:48;;;;;;;11.00;7.30;;;;;;;12.69;71.42;97425.16;5053161;28;20290;-78
2022/10/09 05:59:20;;;;;;;13.07;8.03;;;;;;;12.88;69.89;97412.13;5057811;28;20186;-77
2022/10/09 06:02:02;;;;;;;13.60;7.50;;;;;;;12.84;70.63;97427.00;5061165;28;20592;-79
2022/10/09 06:04:30;;;;;;;12.47;7.30;;;;;;;13.05;69.79;97428.59;5057589;28;20228;-80
2022/10/09 06:06:57;;;;;;;13.63;7.33;;;;;;;13.19;69.03;97429.66;5039934;28;20201;-77
2022/10/09 06:09:26;;;;;;;8.73;7.20;;;;;;;13.36;68.33;97433.09;5061467;28;20604;-77
2022/10/09 06:11:55;;;;;;;10.83;7.00;;;;;;;13.49;68.37;97438.53;5063648;28;20199;-80
2022/10/09 06:14:23;;;;;;;9.83;6.97;;;;;;;13.71;67.73;97444.31;5055062;28;20209;-79
2022/10/09 06:16:52;;;;;;;8.97;7.27;;;;;;;13.84;67.29;97440.16;5057996;28;20183;-80
2022/10/09 06:19:21;;;;;;;10.77;7.50;;;;;;;14.02;67.55;97447.00;5056429;28;20191;-77
2022/10/09 06:21:50;;;;;;;10.10;6.30;;;;;;;14.05;66.91;97444.25;5055247;28;20245;-80
2022/10/09 06:24:23;;;;;;;9.43;6.47;;;;;;;14.17;66.93;97442.72;5054916;28;20214;-78
2022/10/09 06:26:55;;;;;;;10.20;6.30;;;;;;;14.18;66.54;97440.03;5057374;28;20339;-79
2022/10/09 06:29:22;;;;;;;10.33;6.83;;;;;;;14.32;66.42;97440.16;5056628;28;20260;-78
2022/10/09 06:31:49;;;;;;;9.40;6.83;;;;;;;14.32;66.51;97414.09;5055196;28;20182;-77
2022/10/09 06:34:16;;;;;;;5.37;4.73;;;;;;;14.38;66.03;97432.03;5050484;28;20192;-78
2022/10/09 06:36:43;;;;;;;6.63;5.23;;;;;;;14.55;65.55;97437.16;5051103;28;20210;-80
2022/10/09 06:39:11;;;;;;;9.83;5.57;;;;;;;14.65;66.08;97446.13;5051111;28;20188;-77
2022/10/09 06:41:38;;;;;;;11.23;5.47;;;;;;;14.85;64.21;97420.72;5048694;28;20248;-78
2022/10/09 06:44:23;;;;;;;5.23;4.43;;;;;;;15.28;63.83;97438.22;5051806;28;20200;-77
2022/10/09 06:46:51;;;;;;;5.80;4.40;;;;;;;15.38;63.09;97439.34;5051227;28;20195;-77
2022/10/09 06:49:19;;;;;;;6.80;4.80;;;;;;;15.51;62.90;97432.53;5049377;28;20289;-75
2022/10/09 06:51:50;;;;;;;11.20;5.70;;;;;;;15.57;62.63;97439.16;5051594;28;20235;-77
2022/10/09 06:54:18;;;;;;;7.00;5.07;;;;;;;15.78;62.26;97451.78;5048793;28;20186;-78
2022/10/09 06:56:45;;;;;;;6.20;4.90;;;;;;;15.74;61.94;97426.78;5050156;28;20188;-77
2022/10/09 06:59:14;;;;;;;7.27;4.87;;;;;;;16.13;61.42;97455.72;5049463;28;20190;-76
2022/10/09 07:01:43;;;;;;;6.60;4.53;;;;;;;16.23;60.90;97463.81;5049197;28;20612;-77
2022/10/09 07:04:12;;;;;;;7.60;4.60;;;;;;;16.27;60.88;97471.38;5050368;28;20744;-77
2022/10/09 07:06:45;;;;;;;7.33;5.23;;;;;;;16.34;60.66;97466.63;5049943;28;21057;-77
2022/10/09 07:09:15;;;;;;;6.93;5.53;;;;;;;16.23;60.22;97443.75;5047764;28;20240;-78
2022/10/09 07:11:45;;;;;;;7.93;5.30;;;;;;;16.49;60.18;97470.91;5048797;28;20207;-76
2022/10/09 07:14:17;;;;;;;7.63;5.30;;;;;;;16.40;60.30;97457.56;5051036;28;20256;-77
2022/10/09 07:16:47;;;;;;;8.50;5.00;;;;;;;16.53;59.98;97464.56;5049076;28;20229;-79
2022/10/09 07:19:16;;;;;;;7.17;4.70;;;;;;;16.66;59.63;97469.84;5033113;28;20198;-76
2022/10/09 07:21:45;;;;;;;8.47;5.67;;;;;;;16.80;59.55;97457.59;5049078;28;20224;-77
2022/10/09 07:24:13;;;;;;;9.23;5.47;;;;;;;16.95;58.91;97459.22;5047279;28;20198;-77
2022/10/09 07:26:43;;;;;;;9.00;5.70;;;;;;;17.01;58.53;97437.91;5047054;28;20294;-78
2022/10/09 07:29:13;;;;;;;6.90;4.87;;;;;;;17.25;58.06;97473.88;5047084;28;20685;-79
2022/10/09 07:31:40;;;;;;;7.93;5.63;;;;;;;17.34;58.28;97481.97;5047937;28;20204;-78
2022/10/09 07:34:08;;;;;;;6.77;5.23;;;;;;;17.48;57.65;97474.03;5048574;28;20198;-78
2022/10/09 07:36:36;;;;;;;11.13;6.63;;;;;;;17.48;57.10;97453.09;5047270;28;20194;-76
2022/10/09 07:39:04;;;;;;;6.23;5.20;;;;;;;17.74;56.18;97469.72;5039633;28;20663;-77
2022/10/09 07:41:34;;;;;;;7.97;5.60;;;;;;;17.82;55.72;97463.03;5048850;28;20264;-77
2022/10/09 07:44:02;;;;;;;11.23;5.40;;;;;;;18.07;55.94;97466.59;5030051;28;20230;-77
2022/10/09 07:46:29;;;;;;;6.50;5.10;;;;;;;18.19;54.87;97457.88;5028781;28;20200;-76
2022/10/09 07:49:01;;;;;;;6.53;5.10;;;;;;;18.25;54.84;97449.56;5050235;28;20204;-77
2022/10/09 07:51:30;;;;;;;8.03;5.70;;;;;;;18.36;54.27;97447.06;5057336;28;20239;-77
2022/10/09 07:53:59;;;;;;;9.67;6.60;;;;;;;18.46;53.97;97450.72;5047873;28;20235;-79
2022/10/09 07:56:30;;;;;;;13.10;7.63;;;;;;;18.67;53.77;97462.31;5048215;28;20213;-77
2022/10/09 07:58:59;;;;;;;11.27;7.07;;;;;;;18.78;53.08;97456.28;5049932;28;20570;-76
2022/10/09 08:01:30;;;;;;;11.50;6.97;;;;;;;18.83;52.53;97457.66;5048063;28;20272;-78
2022/10/09 08:03:58;;;;;;;12.83;7.13;;;;;;;18.84;53.22;97467.19;5049943;28;20197;-77
2022/10/09 08:06:28;;;;;;;9.13;7.03;;;;;;;18.92;53.14;97450.91;5050448;28;20288;-78
2022/10/09 08:08:57;;;;;;;10.50;7.03;;;;;;;19.11;52.71;97452.06;5050978;28;20319;-79
2022/10/09 08:11:25;;;;;;;9.10;7.07;;;;;;;19.24;52.30;97452.84;5053518;28;20189;-79
2022/10/09 08:13:53;;;;;;;19.63;8.00;;;;;;;19.37;51.93;97453.63;5046270;28;20196;-77
2022/10/09 08:16:23;;;;;;;11.13;8.07;;;;;;;19.44;52.10;97456.66;5046405;28;20268;-79
2022/10/09 08:18:54;;;;;;;10.57;6.67;;;;;;;19.49;50.28;97447.47;5046189;28;20193;-78
2022/10/09 08:21:21;;;;;;;11.73;5.73;;;;;;;19.57;50.28;97451.31;5046173;28;20323;-78
2022/10/09 08:23:52;;;;;;;5.83;4.83;;;;;;;19.75;50.23;97463.06;5046465;28;20221;-77
2022/10/09 08:26:20;;;;;;;10.00;5.47;;;;;;;19.82;49.93;97457.25;5044663;28;20212;-78
2022/10/09 08:28:56;;;;;;;7.77;5.53;;;;;;;19.93;49.80;97445.88;5045962;28;20193;-78
2022/10/09 08:31:24;;;;;;;9.53;5.17;;;;;;;19.94;49.88;97453.69;5046109;28;20213;-80
2022/10/09 08:33:56;;;;;;;5.73;4.93;;;;;;;19.94;49.77;97455.47;5046268;28;20247;-78
2022/10/09 08:36:24;;;;;;;6.83;4.80;;;;;;;20.04;49.67;97466.94;5046038;28;20649;-78
2022/10/09 08:38:51;;;;;;;6.53;4.60;;;;;;;20.04;49.29;97452.00;5028160;28;20201;-78
2022/10/09 08:41:25;;;;;;;5.73;4.83;;;;;;;20.19;48.95;97456.13;5044762;28;20233;-77
2022/10/09 08:44:03;;;;;;;5.53;4.60;;;;;;;20.27;48.02;97459.00;5045422;28;20262;-77
2022/10/09 08:46:52;;;;;;;5.40;4.37;;;;;;;20.13;48.63;97455.72;5046143;28;20189;-77
2022/10/09 08:49:43;;;;;;;6.60;4.47;;;;;;;20.32;48.37;97442.03;5046248;28;20223;-78
2022/10/09 08:52:28;;;;;;;7.70;5.00;;;;;;;20.34;48.94;97445.38;5045331;28;20285;-77
2022/10/09 08:55:00;;;;;;;7.87;4.50;;;;;;;20.41;48.55;97436.03;5046256;28;20260;-79
2022/10/09 08:57:33;;;;;;;8.57;5.30;;;;;;;20.52;48.42;97426.34;5045761;28;20201;-78
2022/10/09 09:00:00;;;;;;;9.17;5.03;;;;;;;20.63;47.68;97415.78;5044248;28;20227;-78
2022/10/09 09:02:36;;;;;;;8.87;5.73;;;;;;;20.47;47.68;97436.38;5045720;28;20241;-78
2022/10/09 09:05:21;;;;;;;7.87;5.30;;;;;;;20.57;48.03;97433.84;5047644;28;20255;-78
2022/10/09 09:07:51;;;;;;;38.77;8.70;;;;;;;20.76;47.88;97427.00;5049830;28;20186;-78
2022/10/09 09:10:33;;;;;;;219.63;49.67;;;;;;;20.80;47.33;97420.53;5050380;28;20232;-79
2022/10/09 09:13:08;;;;;;;83.90;39.63;;;;;;;20.73;47.13;97429.88;5049436;28;20630;-78
2022/10/09 09:15:59;;;;;;;23.33;13.90;;;;;;;20.51;46.87;97419.38;5050425;28;20192;-78
2022/10/09 09:18:48;;;;;;;1661.13;832.00;;;;;;;20.96;45.87;97418.31;5050006;28;20284;-77
2022/10/09 09:21:46;;;;;;;564.90;371.37;;;;;;;21.00;44.28;97424.16;5048567;28;20312;-78
2022/10/09 09:24:17;;;;;;;1542.17;796.70;;;;;;;21.08;43.91;97415.69;5049400;28;20288;-73
2022/10/09 09:26:49;;;;;;;1999.90;931.17;;;;;;;21.17;44.15;97396.50;5048834;28;20193;-78
2022/10/09 09:29:22;;;;;;;912.53;638.10;;;;;;;21.28;43.50;97433.34;5049862;28;20188;-77
2022/10/09 09:31:57;;;;;;;1574.40;835.03;;;;;;;21.26;44.07;97425.56;5049034;28;20194;-80
2022/10/09 09:34:36;;;;;;;771.53;392.63;;;;;;;21.41;43.47;97421.63;5049387;28;20280;-78
2022/10/09 09:37:03;;;;;;;898.63;554.30;;;;;;;21.36;42.49;97420.34;5047820;28;20214;-78
2022/10/09 09:39:33;;;;;;;194.67;93.03;;;;;;;21.50;42.77;97425.31;5048924;28;20291;-78
2022/10/09 09:42:20;;;;;;;696.73;493.53;;;;;;;21.61;42.78;97427.91;5048600;28;20233;-77
2022/10/09 09:45:12;;;;;;;1243.13;786.07;;;;;;;21.72;42.15;97417.31;5049104;28;20186;-77
2022/10/09 09:47:44;;;;;;;421.47;290.77;;;;;;;21.48;41.70;97420.19;5048626;28;20245;-77
2022/10/09 09:50:11;;;;;;;555.20;344.37;;;;;;;21.62;42.02;97430.41;5048584;28;20278;-78
2022/10/09 09:53:03;;;;;;;1873.47;897.33;;;;;;;21.79;42.14;97421.91;5048513;28;20610;-76
2022/10/09 09:55:32;;;;;;;1731.20;883.67;;;;;;;21.95;41.93;97421.47;5047727;28;20701;-76
2022/10/09 09:58:13;;;;;;;396.70;173.17;;;;;;;21.93;42.69;97406.78;5047057;28;20229;-78
2022/10/09 10:00:40;;;;;;;492.03;360.00;;;;;;;22.00;40.87;97429.84;5047469;28;20194;-78
2022/10/09 10:03:13;;;;;;;770.87;524.57;;;;;;;21.88;41.27;97410.59;5048793;28;20254;-79
2022/10/09 10:05:42;;;;;;;1026.27;623.43;;;;;;;22.13;41.27;97414.66;5048531;28;20184;-79
2022/10/09 10:08:13;;;;;;;644.33;447.83;;;;;;;22.04;40.91;97406.66;5048065;28;20242;-78
2022/10/09 10:10:45;;;;;;;36.87;20.60;;;;;;;21.73;40.80;97379.41;5048951;28;20277;-80
2022/10/09 10:13:22;;;;;;;10.60;6.83;;;;;;;21.93;40.76;97397.03;5048950;28;20576;-81
2022/10/09 10:15:53;;;;;;;9.53;6.80;;;;;;;21.99;41.21;97409.69;5047465;28;20612;-79
2022/10/09 10:18:23;;;;;;;24.73;14.47;;;;;;;21.90;41.09;97414.94;5048136;28;20243;-80
2022/10/09 10:20:55;;;;;;;9.90;7.67;;;;;;;21.95;40.89;97410.09;5047718;28;20257;-79
2022/10/09 10:23:39;;;;;;;20.33;11.83;;;;;;;21.77;40.83;97409.81;5047735;28;20223;-78
2022/10/09 10:26:40;;;;;;;15.17;10.00;;;;;;;21.82;41.08;97407.69;5048952;28;20244;-80
2022/10/09 10:29:16;;;;;;;4.83;2.90;;;;;;;21.80;40.91;97399.84;5050300;28;20540;-79
2022/10/09 10:32:16;;;;;;;6.60;3.67;;;;;;;21.96;41.03;97394.16;5049310;28;20194;-78
2022/10/09 10:35:00;;;;;;;4.27;3.50;;;;;;;22.11;40.66;97376.16;5049986;28;20277;-81
2022/10/09 10:37:44;;;;;;;4.70;3.27;;;;;;;22.30;40.50;97394.69;5048387;28;20185;-81
2022/10/09 10:40:18;;;;;;;6.27;3.60;;;;;;;22.19;40.83;97400.91;5047185;28;20703;-80
2022/10/09 10:42:57;;;;;;;4.70;3.20;;;;;;;22.28;40.49;97389.56;5048584;28;20263;-81
2022/10/09 10:45:32;;;;;;;4.37;2.97;;;;;;;22.36;40.16;97379.16;5047840;28;20193;-81
2022/10/09 10:48:01;;;;;;;3.33;3.03;;;;;;;22.45;39.50;97374.88;5042683;28;20290;-80
2022/10/09 10:50:40;;;;;;;5.10;3.50;;;;;;;22.50;39.97;97378.78;5027964;28;20715;-79
2022/10/09 10:53:10;;;;;;;3.77;3.13;;;;;;;22.30;40.50;97381.50;5036715;28;20236;-80
2022/10/09 10:56:13;;;;;;;5.53;3.37;;;;;;;22.25;40.14;97374.00;5048040;28;20217;-79
2022/10/09 10:58:57;;;;;;;5.27;3.10;;;;;;;22.27;40.39;97372.06;5045216;28;20230;-79
2022/10/09 11:01:51;;;;;;;6.40;3.10;;;;;;;22.40;39.11;97372.63;5046856;28;20274;-79
2022/10/09 11:04:28;;;;;;;4.37;2.67;;;;;;;22.46;39.44;97356.25;5047569;28;20199;-80
2022/10/09 11:07:24;;;;;;;5.00;3.30;;;;;;;22.63;38.94;97368.84;5048908;28;20265;-79
2022/10/09 11:09:57;;;;;;;4.23;3.10;;;;;;;22.63;39.18;97355.63;5048801;28;20237;-81
2022/10/09 11:12:46;;;;;;;4.77;2.93;;;;;;;22.77;38.34;97358.88;5047492;28;20223;-80
2022/10/09 11:15:30;;;;;;;4.00;3.03;;;;;;;22.77;38.51;97358.88;5047345;28;20217;-80
2022/10/09 11:18:31;;;;;;;3.30;2.97;;;;;;;22.86;38.54;97361.50;5048489;28;20251;-80
2022/10/09 11:21:08;;;;;;;5.90;3.23;;;;;;;22.98;38.18;97352.47;5047465;28;20184;-81
2022/10/09 11:23:52;;;;;;;4.83;3.33;;;;;;;23.07;38.56;97346.34;5047777;28;20221;-81
2022/10/09 11:26:30;;;;;;;5.70;3.03;;;;;;;23.03;38.45;97359.97;5048056;28;20632;-82
2022/10/09 11:29:04;;;;;;;3.37;2.80;;;;;;;22.95;38.03;97344.00;5047728;28;20757;-82
2022/10/09 11:31:47;;;;;;;3.67;3.07;;;;;;;23.01;38.02;97346.06;5051046;28;20188;-82
2022/10/09 11:34:21;;;;;;;3.40;3.10;;;;;;;22.97;37.95;97326.19;5047498;28;20189;-80
2022/10/09 11:36:48;;;;;;;3.10;2.80;;;;;;;23.14;38.26;97346.63;5047423;28;20661;-80
2022/10/09 11:39:24;;;;;;;4.90;2.93;;;;;;;22.95;37.68;97329.00;5047155;28;20223;-80
2022/10/09 11:41:53;;;;;;;2.70;2.50;;;;;;;22.98;37.32;97338.44;5046884;28;20225;-79
2022/10/09 11:44:59;;;;;;;3.97;2.90;;;;;;;22.89;37.91;97347.19;5047877;28;20218;-78
2022/10/09 11:47:26;;;;;;;4.53;2.80;;;;;;;22.85;37.91;97340.53;5047525;28;20192;-81
2022/10/09 11:50:05;;;;;;;5.87;3.10;;;;;;;22.92;38.29;97344.25;5047807;28;20222;-78